createdAt,value
2018-12-20T00:00:58.651Z,25.89
2018-12-20T00:03:27.258Z,26.32
2018-12-20T00:05:56.046Z,25.63
2018-12-20T00:08:24.740Z,25.89
2018-12-20T00:10:53.509Z,25.68
2018-12-20T00:13:22.203Z,26.18
2018-12-20T00:15:50.845Z,25.43
2018-12-20T00:18:19.507Z,25.63
2018-12-20T00:20:48.244Z,25.56
2018-12-20T00:23:16.963Z,25.54
2018-12-20T00:25:45.901Z,25.73
2018-12-20T00:28:14.581Z,25.83
2018-12-20T00:30:43.238Z,26.01
2018-12-20T00:33:12.091Z,25.56
2018-12-20T00:35:40.790Z,25.83
2018-12-20T00:38:09.538Z,26.08
2018-12-20T00:40:38.259Z,25.40
2018-12-20T00:43:06.895Z,25.62
2018-12-20T00:45:35.558Z,25.42
2018-12-20T00:48:04.288Z,25.49
2018-12-20T00:50:33.210Z,26.03
2018-12-20T00:53:01.800Z,25.99
2018-12-20T00:55:30.464Z,25.24
2018-12-20T00:57:59.180Z,25.89
2018-12-20T01:00:27.899Z,25.99
2018-12-20T01:02:57.160Z,25.99
2018-12-20T01:05:25.865Z,25.44
2018-12-20T01:07:54.600Z,25.86
2018-12-20T01:10:23.207Z,25.53
2018-12-20T01:12:51.870Z,25.41
2018-12-20T01:15:20.435Z,25.48
2018-12-20T01:17:49.053Z,25.63
2018-12-20T01:20:17.667Z,25.70
2018-12-20T01:22:46.404Z,25.47
2018-12-20T01:25:15.106Z,26.12
2018-12-20T01:27:43.969Z,25.50
2018-12-20T01:30:12.883Z,25.53
2018-12-20T01:32:41.706Z,25.65
2018-12-20T01:35:10.561Z,26.14
2018-12-20T01:37:39.423Z,25.72
2018-12-20T01:40:08.505Z,26.22
2018-12-20T01:42:37.268Z,25.64
2018-12-20T01:45:06.140Z,25.58
2018-12-20T01:47:34.857Z,26.22
2018-12-20T01:50:03.850Z,26.16
2018-12-20T01:52:32.719Z,26.11
2018-12-20T01:55:01.397Z,25.65
2018-12-20T01:57:30.223Z,26.27
2018-12-20T01:59:58.982Z,26.05
2018-12-20T02:02:27.691Z,26.26
2018-12-20T02:04:56.394Z,25.69
2018-12-20T02:07:25.393Z,25.82
2018-12-20T02:09:54.205Z,26.16
2018-12-20T02:12:22.811Z,25.66
2018-12-20T02:14:51.432Z,26.23
2018-12-20T02:17:20.057Z,26.25
2018-12-20T02:19:48.767Z,26.27
2018-12-20T02:22:17.474Z,25.72
2018-12-20T02:24:46.249Z,25.77
2018-12-20T02:27:15.252Z,26.15
2018-12-20T02:29:44.109Z,26.37
2018-12-20T02:32:12.760Z,25.73
2018-12-20T02:34:41.485Z,26.27
2018-12-20T02:37:10.103Z,25.80
2018-12-20T02:39:38.754Z,25.86
2018-12-20T02:42:07.744Z,26.28
2018-12-20T02:44:36.529Z,25.68
2018-12-20T02:47:05.276Z,26.18
2018-12-20T02:49:33.957Z,26.27
2018-12-20T02:52:02.654Z,25.81
2018-12-20T02:54:31.351Z,26.24
2018-12-20T02:57:00.151Z,26.33
2018-12-20T02:59:29.089Z,25.72
2018-12-20T03:01:57.923Z,26.18
2018-12-20T03:04:26.587Z,26.39
2018-12-20T03:06:55.483Z,26.15
2018-12-20T03:09:24.268Z,26.37
2018-12-20T03:11:52.859Z,26.33
2018-12-20T03:14:21.635Z,25.91
2018-12-20T03:16:50.442Z,26.19
2018-12-20T03:19:19.290Z,26.37
2018-12-20T03:21:48.061Z,26.37
2018-12-20T03:24:17.050Z,26.39
2018-12-20T03:26:45.867Z,26.46
2018-12-20T03:29:14.730Z,26.37
2018-12-20T03:31:43.381Z,26.32
2018-12-20T03:34:12.063Z,25.85
2018-12-20T03:36:40.944Z,25.83
2018-12-20T03:39:09.658Z,25.93
2018-12-20T03:41:38.244Z,26.26
2018-12-20T03:44:06.835Z,25.77
2018-12-20T03:46:35.613Z,26.45
2018-12-20T03:49:04.503Z,25.76
2018-12-20T03:51:33.561Z,26.39
2018-12-20T03:54:02.503Z,25.88
2018-12-20T03:56:31.381Z,26.05
2018-12-20T03:59:00.159Z,25.89
2018-12-20T04:01:28.813Z,25.89
2018-12-20T04:03:57.515Z,26.37
2018-12-20T04:06:26.298Z,25.98
2018-12-20T04:08:55.058Z,26.07
2018-12-20T04:11:23.978Z,26.23
2018-12-20T04:13:52.722Z,26.46
2018-12-20T04:16:21.455Z,25.77
2018-12-20T04:18:50.050Z,26.40
2018-12-20T04:21:18.652Z,25.89
2018-12-20T04:23:47.440Z,26.30
2018-12-20T04:26:16.158Z,25.80
2018-12-20T04:28:44.847Z,26.10
2018-12-20T04:31:13.557Z,26.31
2018-12-20T04:33:42.285Z,26.31
2018-12-20T04:36:11.205Z,25.84
2018-12-20T04:38:40.186Z,25.91
2018-12-20T04:41:08.879Z,26.40
2018-12-20T04:43:37.775Z,25.77
2018-12-20T04:46:06.746Z,25.77
2018-12-20T04:48:35.764Z,26.13
2018-12-20T04:51:04.412Z,26.41
2018-12-20T04:53:33.006Z,25.82
2018-12-20T04:56:01.718Z,25.80
2018-12-20T04:58:30.474Z,25.74
2018-12-20T05:00:59.169Z,26.39
2018-12-20T05:03:27.738Z,25.87
2018-12-20T05:05:56.396Z,25.89
2018-12-20T05:08:25.240Z,25.87
2018-12-20T05:10:53.901Z,25.91
2018-12-20T05:13:22.710Z,25.82
2018-12-20T05:15:55.964Z,26.32
2018-12-20T05:18:21.906Z,25.89
2018-12-20T05:20:50.529Z,25.52
2018-12-20T05:23:19.344Z,26.33
2018-12-20T05:25:48.060Z,26.34
2018-12-20T05:28:16.790Z,25.80
2018-12-20T05:30:45.690Z,26.28
2018-12-20T05:33:14.549Z,25.67
2018-12-20T05:35:43.105Z,25.73
2018-12-20T05:38:11.862Z,25.72
2018-12-20T05:40:40.690Z,26.31
2018-12-20T05:43:09.443Z,25.72
2018-12-20T05:45:38.061Z,25.73
2018-12-20T05:48:06.721Z,25.72
2018-12-20T05:50:35.489Z,25.93
2018-12-20T05:53:04.162Z,26.10
2018-12-20T05:55:32.817Z,26.22
2018-12-20T05:58:01.733Z,25.75
2018-12-20T06:00:30.515Z,26.22
2018-12-20T06:02:59.409Z,25.68
2018-12-20T06:05:28.275Z,25.73
2018-12-20T06:07:56.983Z,25.72
2018-12-20T06:10:25.908Z,26.21
2018-12-20T06:12:54.837Z,26.34
2018-12-20T06:15:23.661Z,26.30
2018-12-20T06:17:52.695Z,26.28
2018-12-20T06:20:21.562Z,25.65
2018-12-20T06:22:50.323Z,26.17
2018-12-20T06:25:21.323Z,26.19
2018-12-20T06:27:49.605Z,26.09
2018-12-20T06:30:18.209Z,25.67
2018-12-20T06:32:46.940Z,25.68
2018-12-20T06:35:15.508Z,26.27
2018-12-20T06:37:44.084Z,26.23
2018-12-20T06:40:12.879Z,26.23
2018-12-20T06:42:41.490Z,25.61
2018-12-20T06:45:11.034Z,25.50
2018-12-20T06:47:39.664Z,25.70
2018-12-20T06:50:08.343Z,26.09
2018-12-20T06:52:37.109Z,25.61
2018-12-20T06:55:06.022Z,26.10
2018-12-20T06:57:34.624Z,25.55
2018-12-20T07:00:03.343Z,25.83
2018-12-20T07:02:31.997Z,26.12
2018-12-20T07:05:00.570Z,25.96
2018-12-20T07:07:29.216Z,26.06
2018-12-20T07:09:57.852Z,26.37
2018-12-20T07:12:26.460Z,26.48
2018-12-20T07:14:55.044Z,26.68
2018-12-20T07:17:23.631Z,26.19
2018-12-20T07:19:52.317Z,26.48
2018-12-20T07:22:21.637Z,26.68
2018-12-20T07:24:50.420Z,26.34
2018-12-20T07:27:19.048Z,26.50
2018-12-20T07:29:47.747Z,26.70
2018-12-20T07:32:24.793Z,26.22
2018-12-20T07:34:47.965Z,26.15
2018-12-20T07:37:16.920Z,26.21
2018-12-20T07:39:45.655Z,26.33
2018-12-20T07:42:14.340Z,26.13
2018-12-20T07:44:42.947Z,26.68
2018-12-20T07:47:11.561Z,26.66
2018-12-20T07:49:40.158Z,26.12
2018-12-20T07:52:08.747Z,26.67
2018-12-20T07:54:37.412Z,26.10
2018-12-20T07:57:06.020Z,26.66
2018-12-20T07:59:34.682Z,26.42
2018-12-20T08:02:03.402Z,26.28
2018-12-20T08:06:59.525Z,26.36
2018-12-20T08:09:28.151Z,26.63
2018-12-20T08:11:56.816Z,27.18
2018-12-20T08:14:25.561Z,26.88
2018-12-20T08:16:54.277Z,27.45
2018-12-20T08:19:22.881Z,27.76
2018-12-20T08:21:51.595Z,28.15
2018-12-20T08:24:20.266Z,28.32
2018-12-20T08:26:48.870Z,28.20
2018-12-20T08:29:17.525Z,28.64
2018-12-20T08:31:46.326Z,28.94
2018-12-20T08:34:15.059Z,29.00
2018-12-20T08:36:43.708Z,29.90
2018-12-20T08:39:12.336Z,29.55
2018-12-20T08:41:40.951Z,29.03
2018-12-20T08:44:09.607Z,29.55
2018-12-20T08:46:41.352Z,28.97
2018-12-20T08:49:09.983Z,29.18
2018-12-20T08:51:38.583Z,29.20
2018-12-20T08:54:07.182Z,29.15
2018-12-20T08:56:35.822Z,28.78
2018-12-20T08:59:04.662Z,28.77
2018-12-20T09:01:33.271Z,28.04
2018-12-20T09:04:01.919Z,28.51
2018-12-20T09:06:30.579Z,27.87
2018-12-20T09:08:59.354Z,28.29
2018-12-20T09:11:27.998Z,27.69
2018-12-20T09:16:24.169Z,28.00
2018-12-20T09:18:52.803Z,27.84
2018-12-20T09:21:21.398Z,27.58
2018-12-20T09:23:50.055Z,27.65
2018-12-20T09:26:18.684Z,27.48
2018-12-20T09:28:47.383Z,27.10
2018-12-20T09:31:16.060Z,26.95
2018-12-20T09:33:44.705Z,26.87
2018-12-20T09:36:13.574Z,26.65
2018-12-20T09:38:42.149Z,26.62
2018-12-20T09:41:11.082Z,26.54
2018-12-20T09:43:39.732Z,27.17
2018-12-20T09:46:08.505Z,26.96
2018-12-20T09:48:37.177Z,26.97
2018-12-20T09:51:05.902Z,26.81
2018-12-20T09:53:34.597Z,26.31
2018-12-20T09:56:03.262Z,26.73
2018-12-20T09:58:32.418Z,26.22
2018-12-20T10:01:01.115Z,26.62
2018-12-20T10:03:29.835Z,26.66
2018-12-20T10:05:58.552Z,26.42
2018-12-20T10:08:27.250Z,26.59
2018-12-20T10:10:55.900Z,26.58
2018-12-20T10:13:24.652Z,26.47
2018-12-20T10:15:53.316Z,26.30
2018-12-20T10:18:21.930Z,26.27
2018-12-20T10:20:50.642Z,26.19
2018-12-20T10:23:19.328Z,25.67
2018-12-20T10:25:47.953Z,26.01
2018-12-20T10:28:16.688Z,26.08
2018-12-20T10:30:45.307Z,25.46
2018-12-20T10:33:13.965Z,25.36
2018-12-20T10:35:42.727Z,25.98
2018-12-20T10:40:38.973Z,25.25
2018-12-20T10:43:07.610Z,25.18
2018-12-20T10:45:36.208Z,25.62
2018-12-20T10:48:05.179Z,25.06
2018-12-20T10:50:33.806Z,25.56
2018-12-20T10:53:02.509Z,25.09
2018-12-20T10:55:31.253Z,25.50
2018-12-20T10:57:59.912Z,24.96
2018-12-20T11:00:32.787Z,24.91
2018-12-20T11:03:06.783Z,24.88
2018-12-20T11:05:40.656Z,25.43
2018-12-20T11:08:14.546Z,25.35
2018-12-20T11:10:43.244Z,24.89
2018-12-20T11:13:17.342Z,25.32
2018-12-20T11:15:46.006Z,25.04
2018-12-20T11:18:14.713Z,24.79
2018-12-20T11:20:43.313Z,24.84
2018-12-20T11:23:12.151Z,25.26
2018-12-20T11:25:40.762Z,25.09
2018-12-20T11:28:09.408Z,25.26
2018-12-20T11:30:38.056Z,24.81
2018-12-20T11:33:06.783Z,25.16
2018-12-20T11:35:35.427Z,24.68
2018-12-20T11:38:04.255Z,25.25
2018-12-20T11:40:32.907Z,25.24
2018-12-20T11:43:01.564Z,24.72
2018-12-20T11:45:30.126Z,25.15
2018-12-20T11:47:58.755Z,25.25
2018-12-20T11:50:27.378Z,24.76
2018-12-20T11:52:56.038Z,24.70
2018-12-20T11:55:24.676Z,24.66
2018-12-20T11:57:53.319Z,25.19
2018-12-20T12:00:22.093Z,24.66
2018-12-20T12:02:50.728Z,25.16
2018-12-20T12:05:19.380Z,25.09
2018-12-20T12:07:47.991Z,24.63
2018-12-20T12:10:16.692Z,25.15
2018-12-20T12:12:45.385Z,24.97
2018-12-20T12:15:14.074Z,24.57
2018-12-20T12:17:42.723Z,24.98
2018-12-20T12:20:11.488Z,24.76
2018-12-20T12:22:40.255Z,24.53
2018-12-20T12:25:09.138Z,24.97
2018-12-20T12:27:37.807Z,24.38
2018-12-20T12:30:07.897Z,24.91
2018-12-20T12:32:36.582Z,24.92
2018-12-20T12:35:05.519Z,24.76
2018-12-20T12:37:34.152Z,24.89
2018-12-20T12:40:02.955Z,24.33
2018-12-20T12:42:31.564Z,24.49
2018-12-20T12:45:00.417Z,24.25
2018-12-20T12:47:34.373Z,24.29
2018-12-20T12:50:03.079Z,24.64
2018-12-20T12:52:31.706Z,24.80
2018-12-20T12:55:00.416Z,24.30
2018-12-20T12:57:29.128Z,24.68
2018-12-20T12:59:57.763Z,24.69
2018-12-20T13:02:26.471Z,24.17
2018-12-20T13:04:55.112Z,24.70
2018-12-20T13:07:23.704Z,24.15
2018-12-20T13:09:52.386Z,24.61
2018-12-20T13:12:21.059Z,24.17
2018-12-20T13:14:49.887Z,24.12
2018-12-20T13:17:18.500Z,24.35
2018-12-20T13:19:47.095Z,24.02
2018-12-20T13:22:15.767Z,24.01
2018-12-20T13:24:44.425Z,24.64
2018-12-20T13:27:14.332Z,24.43
2018-12-20T13:29:43.039Z,23.95
2018-12-20T13:32:11.679Z,24.34
2018-12-20T13:34:40.335Z,24.00
2018-12-20T13:37:15.828Z,23.89
2018-12-20T13:39:39.622Z,23.89
2018-12-20T13:42:08.223Z,24.23
2018-12-20T13:44:36.918Z,23.99
2018-12-20T13:47:05.592Z,24.45
2018-12-20T13:49:35.260Z,23.77
2018-12-20T13:52:04.422Z,24.31
2018-12-20T13:54:33.010Z,24.37
2018-12-20T13:57:01.869Z,24.37
2018-12-20T13:59:30.616Z,24.51
2018-12-20T14:01:59.237Z,23.85
2018-12-20T14:04:27.986Z,23.92
2018-12-20T14:06:56.605Z,24.37
2018-12-20T14:09:25.271Z,23.84
2018-12-20T14:11:54.027Z,23.80
2018-12-20T14:14:22.746Z,23.79
2018-12-20T14:16:52.402Z,24.00
2018-12-20T14:19:21.136Z,24.04
2018-12-20T14:21:49.916Z,23.85
2018-12-20T14:24:18.621Z,24.26
2018-12-20T14:26:47.400Z,23.77
2018-12-20T14:29:16.269Z,24.26
2018-12-20T14:31:45.006Z,23.85
2018-12-20T14:34:14.113Z,23.76
2018-12-20T14:36:42.817Z,24.31
2018-12-20T14:39:11.556Z,23.80
2018-12-20T14:41:40.307Z,24.31
2018-12-20T14:44:09.007Z,23.69
2018-12-20T14:46:37.765Z,24.07
2018-12-20T14:49:06.473Z,23.83
2018-12-20T14:51:35.267Z,24.29
2018-12-20T14:54:04.179Z,24.35
2018-12-20T14:56:32.832Z,24.27
2018-12-20T15:01:29.160Z,24.03
2018-12-20T15:03:57.904Z,24.03
2018-12-20T15:06:26.696Z,24.28
2018-12-20T15:08:55.424Z,24.21
2018-12-20T15:13:51.774Z,23.99
2018-12-20T15:16:20.448Z,24.43
2018-12-20T15:21:16.896Z,23.70
2018-12-20T15:23:45.639Z,24.18
2018-12-20T15:28:41.995Z,23.69
2018-12-20T15:31:10.652Z,23.71
2018-12-20T15:33:39.411Z,24.31
2018-12-20T15:38:35.711Z,24.30
2018-12-20T15:41:04.543Z,23.60
2018-12-20T15:46:01.854Z,24.18
2018-12-20T15:48:30.559Z,24.27
2018-12-20T15:50:59.214Z,24.21
2018-12-20T15:55:55.734Z,23.59
2018-12-20T15:58:24.589Z,24.23
2018-12-20T16:03:21.148Z,24.27
2018-12-20T16:05:49.887Z,23.81
2018-12-20T16:08:18.518Z,23.79
2018-12-20T16:10:47.203Z,23.69
2018-12-20T16:13:15.863Z,23.54
2018-12-20T16:15:44.601Z,24.07
2018-12-20T16:18:13.336Z,24.18
2018-12-20T16:20:42.024Z,23.85
2018-12-20T16:23:10.668Z,23.62
2018-12-20T16:25:39.524Z,24.22
2018-12-20T16:28:08.169Z,24.10
2018-12-20T16:30:37.187Z,23.57
2018-12-20T16:33:05.933Z,23.59
2018-12-20T16:35:34.626Z,24.02
2018-12-20T16:38:03.366Z,24.06
2018-12-20T16:40:32.046Z,23.88
2018-12-20T16:43:00.808Z,23.61
2018-12-20T16:45:29.507Z,24.05
2018-12-20T16:47:58.303Z,24.02
2018-12-20T16:50:26.976Z,23.99
2018-12-20T16:52:55.680Z,23.45
2018-12-20T16:55:24.432Z,23.71
2018-12-20T16:57:53.107Z,23.86
2018-12-20T17:00:21.918Z,23.76
2018-12-20T17:02:50.648Z,23.37
2018-12-20T17:05:19.474Z,23.51
2018-12-20T17:07:48.194Z,23.44
2018-12-20T17:10:16.885Z,23.88
2018-12-20T17:12:45.676Z,23.34
2018-12-20T17:15:16.433Z,23.59
2018-12-20T17:17:45.404Z,23.87
2018-12-20T17:20:14.076Z,23.51
2018-12-20T17:22:42.716Z,23.76
2018-12-20T17:25:11.568Z,23.87
2018-12-20T17:27:40.255Z,23.81
2018-12-20T17:30:10.422Z,23.52
2018-12-20T17:32:39.124Z,23.77
2018-12-20T17:35:07.777Z,23.83
2018-12-20T17:37:36.435Z,23.71
2018-12-20T17:40:05.536Z,23.29
2018-12-20T17:42:34.891Z,23.78
2018-12-20T17:45:03.604Z,23.28
2018-12-20T17:47:32.406Z,23.19
2018-12-20T17:50:01.097Z,23.34
2018-12-20T17:52:29.958Z,23.21
2018-12-20T17:54:58.643Z,23.62
2018-12-20T17:57:27.375Z,23.15
2018-12-20T17:59:56.218Z,23.79
2018-12-20T18:02:24.921Z,23.37
2018-12-20T18:04:53.633Z,23.79
2018-12-20T18:07:22.464Z,23.35
2018-12-20T18:09:51.307Z,23.47
2018-12-20T18:12:20.153Z,23.27
2018-12-20T18:14:48.852Z,23.72
2018-12-20T18:17:17.612Z,23.85
2018-12-20T18:19:46.233Z,23.66
2018-12-20T18:22:14.941Z,23.33
2018-12-20T18:24:43.613Z,23.17
2018-12-20T18:27:12.277Z,23.64
2018-12-20T18:29:40.907Z,23.16
2018-12-20T18:32:09.582Z,23.73
2018-12-20T18:34:38.304Z,23.10
2018-12-20T18:37:06.954Z,23.16
2018-12-20T18:39:35.684Z,23.21
2018-12-20T18:42:04.317Z,23.72
2018-12-20T18:44:32.974Z,23.12
2018-12-20T18:47:01.689Z,23.70
2018-12-20T18:49:30.384Z,23.23
2018-12-20T18:51:59.143Z,23.12
2018-12-20T18:54:27.794Z,23.71
2018-12-20T18:56:56.453Z,23.55
2018-12-20T18:59:25.217Z,23.59
2018-12-20T19:01:53.891Z,23.66
2018-12-20T19:04:22.560Z,23.05
2018-12-20T19:06:51.174Z,23.08
2018-12-20T19:09:19.949Z,23.66
2018-12-20T19:11:48.679Z,23.54
2018-12-20T19:14:17.369Z,23.06
2018-12-20T19:16:46.256Z,23.17
2018-12-20T19:19:15.078Z,23.26
2018-12-20T19:21:43.708Z,22.99
2018-12-20T19:24:13.245Z,23.54
2018-12-20T19:26:41.951Z,23.01
2018-12-20T19:29:10.708Z,23.62
2018-12-20T19:31:39.727Z,23.45
2018-12-20T19:34:08.604Z,23.37
2018-12-20T19:36:37.371Z,22.91
2018-12-20T19:39:09.625Z,23.01
2018-12-20T19:41:38.330Z,23.57
2018-12-20T19:44:07.071Z,22.98
2018-12-20T19:46:35.703Z,22.99
2018-12-20T19:49:04.676Z,23.43
2018-12-20T19:51:33.361Z,22.92
2018-12-20T19:54:02.046Z,23.41
2018-12-20T19:56:30.707Z,22.96
2018-12-20T19:58:59.428Z,23.44
2018-12-20T20:01:28.079Z,23.26
2018-12-20T20:03:56.765Z,23.35
2018-12-20T20:06:25.453Z,22.93
2018-12-20T20:08:54.158Z,23.44
2018-12-20T20:11:22.883Z,23.24
2018-12-20T20:13:51.984Z,23.22
2018-12-20T20:16:20.623Z,23.41
2018-12-20T20:18:49.267Z,23.22
2018-12-20T20:21:17.939Z,22.81
2018-12-20T20:23:46.858Z,22.85
2018-12-20T20:26:15.577Z,23.38
2018-12-20T20:28:44.270Z,22.90
2018-12-20T20:31:13.364Z,23.02
2018-12-20T20:33:42.100Z,22.88
2018-12-20T20:36:11.858Z,23.34
2018-12-20T20:38:40.620Z,23.38
2018-12-20T20:41:09.443Z,23.09
2018-12-20T20:43:38.157Z,22.76
2018-12-20T20:46:07.168Z,22.91
2018-12-20T20:48:35.888Z,23.34
2018-12-20T20:51:04.746Z,23.11
2018-12-20T20:58:30.990Z,23.20
2018-12-20T21:03:27.276Z,22.73
2018-12-20T21:05:56.070Z,22.86
2018-12-20T21:10:52.587Z,23.28
2018-12-20T21:13:21.444Z,22.73
2018-12-20T21:15:50.186Z,22.83
2018-12-20T21:18:18.977Z,22.82
2018-12-20T21:20:47.669Z,23.21
2018-12-20T21:23:16.402Z,22.76
2018-12-20T21:25:45.126Z,22.84
2018-12-20T21:28:13.850Z,22.74
2018-12-20T21:30:42.633Z,23.30
2018-12-20T21:33:11.351Z,23.27
2018-12-20T21:35:40.194Z,22.85
2018-12-20T21:38:08.940Z,22.69
2018-12-20T21:40:37.709Z,22.62
2018-12-20T21:43:06.430Z,23.11
2018-12-20T21:45:35.187Z,22.71
2018-12-20T21:48:04.084Z,22.73
2018-12-20T21:50:38.895Z,22.73
2018-12-20T21:53:03.569Z,22.66
2018-12-20T21:55:32.304Z,23.13
2018-12-20T21:58:01.216Z,23.12
2018-12-20T22:00:29.896Z,22.88
2018-12-20T22:02:58.575Z,23.15
2018-12-20T22:05:27.438Z,22.65
2018-12-20T22:07:56.156Z,22.64
2018-12-20T22:10:24.874Z,22.57
2018-12-20T22:12:53.692Z,23.20
2018-12-20T22:15:22.355Z,23.37
2018-12-20T22:17:50.994Z,23.75
2018-12-20T22:20:19.745Z,23.37
2018-12-20T22:22:48.647Z,23.49
2018-12-20T22:25:17.366Z,23.72
2018-12-20T22:27:46.066Z,24.43
2018-12-20T22:30:14.769Z,24.05
2018-12-20T22:32:43.423Z,24.26
2018-12-20T22:35:12.238Z,24.64
2018-12-20T22:37:40.912Z,24.57
2018-12-20T22:40:09.794Z,24.68
2018-12-20T22:42:38.514Z,24.85
2018-12-20T22:45:08.716Z,25.45
2018-12-20T22:47:37.495Z,24.99
2018-12-20T22:50:08.280Z,25.06
2018-12-20T22:52:37.091Z,25.13
2018-12-20T22:55:06.303Z,25.66
2018-12-20T22:57:35.444Z,25.19
2018-12-20T23:00:05.657Z,25.78
2018-12-20T23:02:34.507Z,25.62
2018-12-20T23:05:03.341Z,25.69
2018-12-20T23:07:32.018Z,25.42
2018-12-20T23:10:00.654Z,25.41
2018-12-20T23:12:29.335Z,25.68
2018-12-20T23:14:58.087Z,25.52
2018-12-20T23:17:26.813Z,25.31
2018-12-20T23:19:55.515Z,25.50
2018-12-20T23:22:24.928Z,25.46
2018-12-20T23:24:53.606Z,25.83
2018-12-20T23:27:22.299Z,25.78
2018-12-20T23:29:50.930Z,26.19
2018-12-20T23:32:19.549Z,26.00
2018-12-20T23:34:48.205Z,27.43
2018-12-20T23:37:16.984Z,27.60
2018-12-20T23:39:45.687Z,28.03
2018-12-20T23:42:15.461Z,29.04
2018-12-20T23:44:44.174Z,29.63
2018-12-20T23:47:12.838Z,29.95
2018-12-20T23:49:41.676Z,30.35
2018-12-20T23:52:10.370Z,30.09
2018-12-20T23:54:39.002Z,30.47
2018-12-20T23:57:07.791Z,31.04
2018-12-20T23:59:36.527Z,30.87
